Time;durP1;ratioP1;P1;durP2;ratioP2;P2;SDS_P1;SDS_P2;PMS_P1;PMS_P2;Temp;Humidity;BMP_temperature;BMP_pressure;BME280_temperature;BME280_humidity;BME280_pressure;Samples;Min_cycle;Max_cycle;Signal;HPM_P1;HPM_P2
2021/03/27 05:01:56;;;;;;;10.23;8.60;;;8.40;99.90;;;;;;5259263;23;20710;-72
2021/03/27 05:04:31;;;;;;;8.52;7.80;;;8.40;99.90;;;;;;4909690;29;20203;-72
2021/03/27 05:07:03;;;;;;;8.38;7.68;;;8.30;99.90;;;;;;4898327;29;20225;-71
2021/03/27 05:09:36;;;;;;;5.35;4.45;;;8.20;99.90;;;;;;4908850;29;20615;-71
2021/03/27 05:12:07;;;;;;;3.90;3.60;;;8.00;99.90;;;;;;4916814;29;20245;-72
2021/03/27 05:15:08;;;;;;;2.97;2.15;;;7.70;99.90;;;;;;4906811;29;20230;-72
2021/03/27 05:18:17;;;;;;;2.83;2.72;;;7.50;99.90;;;;;;4914246;29;20211;-71
2021/03/27 05:20:44;;;;;;;4.82;2.22;;;7.30;99.90;;;;;;4896820;29;20226;-69
2021/03/27 05:23:16;;;;;;;3.03;2.15;;;7.30;99.90;;;;;;4916116;29;20237;-71
2021/03/27 05:25:59;;;;;;;2.25;2.00;;;7.20;99.90;;;;;;4902252;29;20211;-71
2021/03/27 05:28:55;;;;;;;1.85;1.75;;;7.00;99.90;;;;;;4912977;29;20211;-72
2021/03/27 05:31:28;;;;;;;1.60;1.60;;;6.90;99.90;;;;;;4906838;29;20241;-71
2021/03/27 05:34:07;;;;;;;1.75;1.75;;;6.80;99.90;;;;;;4915977;29;20203;-71
2021/03/27 05:36:47;;;;;;;1.88;1.60;;;6.80;99.90;;;;;;4917524;29;20647;-71
2021/03/27 05:39:31;;;;;;;2.20;2.13;;;6.70;99.90;;;;;;4898078;29;20215;-71
2021/03/27 05:42:31;;;;;;;2.17;1.80;;;6.70;99.90;;;;;;4912941;29;20281;-71
2021/03/27 05:45:35;;;;;;;2.00;1.90;;;6.70;99.90;;;;;;4897760;29;20215;-71
2021/03/27 05:48:47;;;;;;;1.58;1.50;;;6.60;99.90;;;;;;4898126;29;20206;-71
2021/03/27 05:51:57;;;;;;;2.30;2.20;;;6.50;99.90;;;;;;4898590;29;20253;-72
2021/03/27 05:54:59;;;;;;;2.58;2.40;;;6.50;99.90;;;;;;4898260;29;20222;-72
2021/03/27 05:57:34;;;;;;;2.03;1.92;;;6.50;99.90;;;;;;4865983;29;20218;-72
2021/03/27 06:00:28;;;;;;;3.10;2.90;;;6.50;99.90;;;;;;4915000;29;20210;-72
2021/03/27 06:03:25;;;;;;;3.58;3.38;;;6.50;99.90;;;;;;4896890;29;20621;-72
2021/03/27 06:06:21;;;;;;;4.30;3.88;;;6.60;99.90;;;;;;4883042;29;20267;-71
2021/03/27 06:09:15;;;;;;;4.82;4.35;;;6.60;99.90;;;;;;4901094;29;20203;-72
2021/03/27 06:11:47;;;;;;;3.47;3.17;;;6.60;99.90;;;;;;4903342;29;20235;-71
2021/03/27 06:14:42;;;;;;;3.78;3.58;;;6.60;99.90;;;;;;4904100;29;20206;-72
2021/03/27 06:17:26;;;;;;;2.95;2.75;;;6.70;99.90;;;;;;4878758;29;20211;-72
2021/03/27 06:20:33;;;;;;;5.10;4.10;;;6.60;99.90;;;;;;4901460;29;20215;-72
2021/03/27 06:23:20;;;;;;;3.33;2.63;;;6.60;99.90;;;;;;4897831;29;20328;-72
2021/03/27 06:26:32;;;;;;;3.10;2.90;;;6.60;99.90;;;;;;4898410;29;20641;-73
2021/03/27 06:29:33;;;;;;;3.53;3.33;;;6.60;99.90;;;;;;4903618;29;20214;-74
2021/03/27 06:32:22;;;;;;;3.63;3.33;;;6.60;99.90;;;;;;4900197;29;20233;-73
2021/03/27 06:34:59;;;;;;;4.40;4.00;;;6.60;99.90;;;;;;4906385;29;20210;-74
2021/03/27 06:37:51;;;;;;;3.50;3.30;;;6.60;99.90;;;;;;4906621;29;20575;-74
2021/03/27 06:40:39;;;;;;;4.03;3.63;;;6.60;99.90;;;;;;4909470;29;20544;-72
2021/03/27 06:43:35;;;;;;;3.65;3.35;;;6.60;99.90;;;;;;4907283;29;20214;-73
2021/03/27 06:46:33;;;;;;;9.35;5.38;;;6.70;99.90;;;;;;4911115;29;20672;-72
2021/03/27 06:49:36;;;;;;;5.07;4.60;;;6.70;99.90;;;;;;4912955;29;20210;-72
2021/03/27 06:52:25;;;;;;;4.68;4.20;;;6.70;99.90;;;;;;4879355;29;20243;-72
2021/03/27 06:55:22;;;;;;;4.07;3.85;;;6.80;99.90;;;;;;4897070;29;20206;-73
2021/03/27 06:58:30;;;;;;;4.25;3.90;;;6.80;99.90;;;;;;4915941;29;20577;-72
2021/03/27 07:01:24;;;;;;;4.80;4.30;;;6.80;99.90;;;;;;4898258;29;20779;-71
2021/03/27 07:04:32;;;;;;;6.30;4.88;;;6.80;99.90;;;;;;4865466;29;20211;-72
2021/03/27 07:07:12;;;;;;;5.72;5.32;;;6.90;99.90;;;;;;4916088;29;20210;-73
2021/03/27 07:10:16;;;;;;;8.52;5.85;;;6.90;99.90;;;;;;4890506;29;20207;-70
2021/03/27 07:12:55;;;;;;;5.40;4.35;;;7.00;99.90;;;;;;4915365;29;20218;-70
2021/03/27 07:15:58;;;;;;;5.00;4.50;;;7.00;99.90;;;;;;4915722;29;20686;-70
2021/03/27 07:18:55;;;;;;;5.78;5.20;;;7.00;99.90;;;;;;4916691;29;20262;-71
2021/03/27 07:21:48;;;;;;;5.97;5.13;;;7.00;99.90;;;;;;4919049;29;20721;-71
2021/03/27 07:24:47;;;;;;;5.40;4.90;;;7.00;99.90;;;;;;4915667;29;20214;-71
2021/03/27 07:27:45;;;;;;;6.97;6.38;;;7.10;99.90;;;;;;4894602;29;20240;-70
2021/03/27 07:30:31;;;;;;;5.22;4.72;;;7.00;99.90;;;;;;4918574;29;20241;-70
2021/03/27 07:33:30;;;;;;;5.28;4.78;;;7.00;99.90;;;;;;4904293;29;20215;-70
2021/03/27 07:36:41;;;;;;;5.63;5.13;;;7.00;99.90;;;;;;4894809;29;20644;-70
2021/03/27 07:39:49;;;;;;;6.80;5.40;;;6.90;99.90;;;;;;4870611;29;20275;-70
2021/03/27 07:42:46;;;;;;;4.82;4.30;;;6.80;99.90;;;;;;4895125;29;20237;-70
2021/03/27 07:45:38;;;;;;;5.45;4.93;;;6.80;99.90;;;;;;4918345;29;20300;-70
2021/03/27 07:48:34;;;;;;;4.70;4.30;;;6.70;99.90;;;;;;4909526;29;20214;-70
2021/03/27 07:51:19;;;;;;;5.22;4.72;;;6.80;99.90;;;;;;4896682;29;20226;-73
2021/03/27 07:54:25;;;;;;;4.25;4.00;;;6.80;99.90;;;;;;4904609;29;20230;-71
2021/03/27 07:57:12;;;;;;;5.35;4.85;;;6.80;99.90;;;;;;4913678;29;20203;-70
2021/03/27 08:00:02;;;;;;;9.15;6.72;;;6.80;99.90;;;;;;4899617;29;20219;-72
2021/03/27 08:03:22;;;;;;;8.73;7.18;;;6.90;99.90;;;;;;4879729;29;20703;-71
2021/03/27 08:06:11;;;;;;;10.85;8.25;;;7.00;99.90;;;;;;4847491;29;20212;-71
2021/03/27 08:09:13;;;;;;;9.35;7.47;;;7.10;99.90;;;;;;4881437;29;20212;-71
2021/03/27 08:12:21;;;;;;;10.23;7.72;;;7.20;99.90;;;;;;4884393;29;20242;-71
2021/03/27 08:15:11;;;;;;;10.15;7.95;;;7.30;99.90;;;;;;4900307;29;20217;-71
2021/03/27 08:17:59;;;;;;;12.07;7.65;;;7.50;99.90;;;;;;4899084;29;20211;-71
2021/03/27 08:21:00;;;;;;;9.95;7.55;;;7.60;99.90;;;;;;4913009;29;20301;-71
2021/03/27 08:23:56;;;;;;;8.48;7.18;;;7.70;99.90;;;;;;4839855;29;20206;-72
2021/03/27 08:26:52;;;;;;;9.85;7.65;;;7.80;99.90;;;;;;4917246;29;20244;-70
2021/03/27 08:29:48;;;;;;;10.93;7.40;;;7.90;99.90;;;;;;4916742;29;20211;-71
2021/03/27 08:33:00;;;;;;;7.57;6.97;;;8.00;99.90;;;;;;4891355;29;20241;-71
2021/03/27 08:36:06;;;;;;;8.15;6.35;;;8.10;99.90;;;;;;4906316;29;20234;-70
2021/03/27 08:38:42;;;;;;;9.70;6.60;;;8.20;99.90;;;;;;4905550;29;20290;-70
2021/03/27 08:41:28;;;;;;;7.43;6.00;;;8.30;99.90;;;;;;4898758;29;20235;-71
2021/03/27 08:44:41;;;;;;;6.57;5.82;;;8.40;99.90;;;;;;4901707;29;20219;-71
2021/03/27 08:47:32;;;;;;;6.88;6.15;;;8.50;99.90;;;;;;4901160;29;20211;-71
2021/03/27 08:50:29;;;;;;;6.65;6.05;;;8.60;99.90;;;;;;4899755;29;20584;-70
2021/03/27 08:53:44;;;;;;;5.97;5.28;;;8.70;99.90;;;;;;4896193;29;20239;-74
2021/03/27 08:56:59;;;;;;;6.97;5.22;;;8.60;99.90;;;;;;4909707;29;20219;-71
2021/03/27 08:59:48;;;;;;;11.70;6.78;;;8.40;99.90;;;;;;4900459;29;20327;-71
2021/03/27 09:02:38;;;;;;;7.00;5.70;;;8.40;99.90;;;;;;4885540;29;20718;-72
2021/03/27 09:05:33;;;;;;;10.32;8.43;;;8.40;99.90;;;;;;4914204;29;20214;-71
2021/03/27 09:08:23;;;;;;;20.75;11.95;;;8.40;99.90;;;;;;4898600;29;20215;-72
2021/03/27 09:11:06;;;;;;;9.50;8.02;;;8.50;99.90;;;;;;4910001;29;20261;-72
2021/03/27 09:13:50;;;;;;;6.72;5.97;;;8.60;99.90;;;;;;4902643;29;20309;-71
2021/03/27 09:16:46;;;;;;;6.93;5.82;;;8.80;99.90;;;;;;4898616;29;20206;-71
2021/03/27 09:19:47;;;;;;;6.13;5.28;;;8.90;99.90;;;;;;4907303;29;20222;-70
2021/03/27 09:22:49;;;;;;;6.20;5.60;;;8.90;99.90;;;;;;4897092;29;20239;-70
2021/03/27 09:25:32;;;;;;;26.42;15.65;;;8.80;99.90;;;;;;4914452;29;20210;-71
2021/03/27 09:28:24;;;;;;;5.80;5.15;;;8.70;99.90;;;;;;4916655;29;20214;-71
2021/03/27 09:31:04;;;;;;;5.97;5.47;;;8.70;99.90;;;;;;4880133;29;20238;-71
2021/03/27 09:33:36;;;;;;;6.13;5.25;;;8.70;99.90;;;;;;4904318;29;20290;-71
2021/03/27 09:36:18;;;;;;;11.15;5.15;;;8.70;99.90;;;;;;4900905;29;20214;-72
2021/03/27 09:39:06;;;;;;;5.90;5.35;;;8.70;99.90;;;;;;4901216;29;20211;-71
2021/03/27 09:41:56;;;;;;;5.80;5.10;;;8.60;99.90;;;;;;4898012;29;20319;-72
2021/03/27 09:44:51;;;;;;;7.35;5.60;;;8.60;99.90;;;;;;4909549;29;20663;-71
2021/03/27 09:47:49;;;;;;;5.97;5.50;;;8.60;99.90;;;;;;4886840;29;20215;-72
2021/03/27 09:50:20;;;;;;;6.97;6.07;;;8.60;99.90;;;;;;4913692;29;20207;-71
2021/03/27 09:53:02;;;;;;;7.72;6.10;;;8.70;99.90;;;;;;4916178;29;20210;-71
2021/03/27 09:55:50;;;;;;;7.22;6.63;;;8.70;99.90;;;;;;4879584;29;20672;-71
2021/03/27 09:58:38;;;;;;;6.15;5.70;;;8.80;99.90;;;;;;4881833;29;20335;-70
2021/03/27 10:01:23;;;;;;;6.35;5.95;;;9.00;99.90;;;;;;4897369;29;20247;-72
2021/03/27 10:04:02;;;;;;;8.10;5.40;;;9.10;99.90;;;;;;4898091;29;20215;-72
2021/03/27 10:06:58;;;;;;;6.05;5.53;;;9.30;99.90;;;;;;4897169;29;20211;-72
2021/03/27 10:09:49;;;;;;;6.78;4.93;;;9.50;99.90;;;;;;4898390;29;20208;-72
2021/03/27 10:12:23;;;;;;;6.03;5.53;;;9.60;99.90;;;;;;4897351;29;20235;-72
2021/03/27 10:14:54;;;;;;;6.93;4.95;;;9.60;99.90;;;;;;4899938;29;20243;-72
2021/03/27 10:17:31;;;;;;;5.10;4.75;;;9.60;99.90;;;;;;4909286;29;20734;-72
2021/03/27 10:20:11;;;;;;;6.13;5.20;;;9.60;99.90;;;;;;4910874;29;20297;-72
2021/03/27 10:22:44;;;;;;;6.18;5.53;;;9.60;99.90;;;;;;4881539;29;20219;-72
2021/03/27 10:25:22;;;;;;;5.85;5.22;;;9.40;99.90;;;;;;4907242;29;20276;-73
2021/03/27 10:27:53;;;;;;;5.30;4.90;;;9.40;99.90;;;;;;4899193;29;20214;-71
2021/03/27 10:30:27;;;;;;;7.50;6.55;;;9.30;99.90;;;;;;4906879;29;20628;-72
2021/03/27 10:33:18;;;;;;;8.65;6.00;;;9.30;99.90;;;;;;4915791;29;20687;-73
2021/03/27 10:36:13;;;;;;;6.32;5.82;;;9.20;99.90;;;;;;4914788;29;20213;-72
2021/03/27 10:39:03;;;;;;;10.93;6.95;;;9.20;99.90;;;;;;4900540;29;20293;-74
2021/03/27 10:41:45;;;;;;;7.10;6.20;;;9.10;99.90;;;;;;4916537;29;20222;-73
2021/03/27 10:44:25;;;;;;;7.20;6.47;;;9.00;99.90;;;;;;4886516;29;20305;-72
2021/03/27 10:46:57;;;;;;;8.98;6.63;;;8.90;99.90;;;;;;4914844;29;20218;-73
2021/03/27 10:49:38;;;;;;;7.00;5.75;;;8.90;99.90;;;;;;4902955;29;20313;-71
2021/03/27 10:52:35;;;;;;;9.48;5.68;;;9.00;99.90;;;;;;4899002;29;20230;-71
2021/03/27 10:55:40;;;;;;;5.70;5.20;;;9.10;99.90;;;;;;4884423;29;20210;-71
2021/03/27 10:58:31;;;;;;;4.53;2.78;;;9.20;99.90;;;;;;4918862;29;20207;-69
2021/03/27 11:01:48;;;;;;;1.55;1.45;;;8.60;99.90;;;;;;4903043;29;20259;-69
2021/03/27 11:04:36;;;;;;;2.67;2.55;;;7.80;99.90;;;;;;4894902;29;20214;-69
2021/03/27 11:07:28;;;;;;;1.65;1.55;;;7.30;99.90;;;;;;4885260;29;20207;-71
2021/03/27 11:10:24;;;;;;;2.47;2.20;;;6.90;99.90;;;;;;4882930;29;20308;-69
2021/03/27 11:13:37;;;;;;;3.90;2.80;;;6.70;99.90;;;;;;4882113;29;20279;-70
2021/03/27 11:16:26;;;;;;;2.63;2.42;;;6.70;99.90;;;;;;4881795;29;20216;-70
2021/03/27 11:19:10;;;;;;;1.80;1.80;;;6.60;99.90;;;;;;4856794;29;20212;-69
2021/03/27 11:22:02;;;;;;;3.15;2.95;;;6.70;99.90;;;;;;4900248;29;20258;-70
2021/03/27 11:24:41;;;;;;;1.95;1.95;;;6.70;99.90;;;;;;4902096;29;20213;-70
2021/03/27 11:27:37;;;;;;;1.80;1.80;;;6.70;99.90;;;;;;4900164;29;20211;-70
2021/03/27 11:30:13;;;;;;;2.97;2.78;;;6.70;99.90;;;;;;4868992;29;20210;-69
2021/03/27 11:32:44;;;;;;;2.50;2.40;;;6.80;99.90;;;;;;4900580;29;20214;-69
2021/03/27 11:35:18;;;;;;;2.25;1.70;;;6.80;99.90;;;;;;4906982;29;20639;-69
2021/03/27 11:37:52;;;;;;;2.10;2.10;;;6.90;99.90;;;;;;4915921;29;20241;-70
2021/03/27 11:40:27;;;;;;;5.65;1.50;;;6.90;99.90;;;;;;4918850;29;20222;-70
2021/03/27 11:43:03;;;;;;;1.50;1.40;;;7.10;99.90;;;;;;4900631;29;20214;-70
2021/03/27 11:45:36;;;;;;;1.80;1.70;;;7.10;99.90;;;;;;4900141;29;20210;-70
2021/03/27 11:48:09;;;;;;;4.25;1.10;;;7.10;99.90;;;;;;4899553;29;20223;-70
2021/03/27 11:50:53;;;;;;;2.45;1.38;;;7.10;99.90;;;;;;4900064;29;20730;-70
2021/03/27 11:53:36;;;;;;;2.13;2.03;;;7.20;99.90;;;;;;4897929;29;20269;-71
2021/03/27 11:56:08;;;;;;;4.03;1.73;;;7.20;99.90;;;;;;4880669;29;20204;-70
2021/03/27 12:01:30;;;;;;;2.47;2.10;;;7.20;99.90;;;;;;4880280;29;20232;-71
2021/03/27 12:04:18;;;;;;;2.30;2.05;;;7.30;99.90;;;;;;4879832;29;20216;-71
2021/03/27 12:07:00;;;;;;;12.45;5.82;;;7.30;99.90;;;;;;4882426;29;20224;-71
2021/03/27 12:09:38;;;;;;;2.83;2.63;;;7.40;99.90;;;;;;4880685;29;20267;-71
2021/03/27 12:12:34;;;;;;;2.33;2.10;;;7.50;99.90;;;;;;4896279;29;20234;-70
2021/03/27 12:15:16;;;;;;;7.97;5.30;;;7.70;99.90;;;;;;4899487;29;20226;-71
2021/03/27 12:17:54;;;;;;;11.45;6.10;;;7.80;99.90;;;;;;4898819;29;20219;-72
2021/03/27 12:20:32;;;;;;;5.50;3.63;;;7.90;99.90;;;;;;4898850;29;20218;-70
2021/03/27 12:23:06;;;;;;;3.03;2.63;;;8.00;99.90;;;;;;4898468;29;20219;-70
2021/03/27 12:25:46;;;;;;;3.38;3.08;;;8.00;99.90;;;;;;4899019;29;20686;-71
2021/03/27 12:28:23;;;;;;;2.45;1.98;;;7.90;99.90;;;;;;4897371;29;20229;-71
2021/03/27 12:30:55;;;;;;;0.98;0.98;;;7.50;99.90;;;;;;4898996;29;20306;-71
2021/03/27 12:33:36;;;;;;;2.75;1.80;;;6.90;99.90;;;;;;4898379;29;20215;-71
2021/03/27 12:36:09;;;;;;;1.50;1.48;;;6.60;99.90;;;;;;4899290;29;20207;-71
2021/03/27 12:39:03;;;;;;;1.30;1.23;;;6.40;99.90;;;;;;4916969;29;20269;-71
2021/03/27 12:41:34;;;;;;;3.13;2.92;;;6.20;99.90;;;;;;4913767;29;20636;-70
2021/03/27 12:44:05;;;;;;;12.13;5.57;;;6.10;99.90;;;;;;4900682;29;20287;-70
2021/03/27 12:46:45;;;;;;;9.70;3.58;;;6.00;99.90;;;;;;4889515;29;20234;-70
2021/03/27 12:49:33;;;;;;;6.28;3.35;;;6.00;99.90;;;;;;4898594;29;20632;-70
2021/03/27 12:52:14;;;;;;;5.28;3.65;;;6.20;99.90;;;;;;4913484;29;20231;-71
2021/03/27 12:54:46;;;;;;;4.45;4.15;;;6.40;99.90;;;;;;4915437;29;20210;-70
2021/03/27 12:57:36;;;;;;;1.10;1.10;;;6.40;99.90;;;;;;4914732;29;20287;-71
2021/03/27 13:00:32;;;;;;;2.30;1.60;;;6.50;99.90;;;;;;4911361;29;21851;-71
2021/03/27 13:03:11;;;;;;;3.55;1.45;;;6.60;99.90;;;;;;4879085;29;20224;-70
2021/03/27 13:05:42;;;;;;;2.63;1.35;;;6.70;99.90;;;;;;4892304;29;20515;-72
2021/03/27 13:08:19;;;;;;;3.38;1.50;;;6.70;99.90;;;;;;4898256;29;20668;-68
2021/03/27 13:10:52;;;;;;;1.50;1.40;;;6.80;99.90;;;;;;4900141;29;20222;-68
2021/03/27 13:13:54;;;;;;;2.95;2.40;;;6.80;99.90;;;;;;4892029;29;20223;-69
2021/03/27 13:16:26;;;;;;;4.25;2.35;;;7.00;99.90;;;;;;4895296;29;20210;-71
2021/03/27 13:18:59;;;;;;;5.20;2.25;;;7.00;99.90;;;;;;4885158;29;20212;-71
2021/03/27 13:21:40;;;;;;;3.58;3.00;;;7.00;99.90;;;;;;4881407;29;20658;-71
2021/03/27 13:24:15;;;;;;;7.05;2.70;;;7.10;99.90;;;;;;4879749;29;20334;-71
2021/03/27 13:26:43;;;;;;;5.05;2.45;;;7.30;99.90;;;;;;4880075;29;20210;-71
2021/03/27 13:29:35;;;;;;;5.55;2.05;;;7.50;99.90;;;;;;4879911;29;20255;-70
2021/03/27 13:32:14;;;;;;;6.65;3.15;;;7.60;99.90;;;;;;4886340;29;20580;-70
2021/03/27 13:34:44;;;;;;;2.17;2.08;;;7.70;99.90;;;;;;4880236;29;20572;-69
2021/03/27 13:37:13;;;;;;;2.25;2.00;;;7.70;99.90;;;;;;4878772;29;20220;-70
2021/03/27 13:39:42;;;;;;;4.00;1.48;;;7.80;99.90;;;;;;4884895;29;20219;-70
2021/03/27 13:42:40;;;;;;;4.60;1.77;;;7.90;99.90;;;;;;4882516;29;20229;-71
2021/03/27 13:45:27;;;;;;;3.50;1.88;;;7.90;99.90;;;;;;4879169;29;20252;-71
2021/03/27 13:48:05;;;;;;;3.83;1.60;;;7.90;99.90;;;;;;4884282;29;20203;-71
2021/03/27 13:50:43;;;;;;;2.20;1.73;;;7.90;99.90;;;;;;4880302;29;20227;-70
2021/03/27 13:53:27;;;;;;;1.67;1.45;;;8.00;99.90;;;;;;4887367;29;20203;-70
2021/03/27 13:56:00;;;;;;;1.65;1.55;;;8.10;99.90;;;;;;4879291;29;20212;-71
2021/03/27 13:58:35;;;;;;;2.30;1.80;;;8.20;99.90;;;;;;4887716;29;20250;-72
2021/03/27 14:01:10;;;;;;;4.47;1.55;;;8.30;99.90;;;;;;4879144;29;20242;-70
2021/03/27 14:03:50;;;;;;;3.55;2.20;;;8.30;99.90;;;;;;4885875;29;20218;-70
2021/03/27 14:06:23;;;;;;;3.08;1.60;;;8.30;99.90;;;;;;4879622;29;20212;-70
2021/03/27 14:09:16;;;;;;;2.45;1.77;;;8.20;99.90;;;;;;4895800;29;20506;-70
2021/03/27 14:11:50;;;;;;;1.08;1.08;;;8.20;99.90;;;;;;4887254;29;20254;-70
2021/03/27 14:14:21;;;;;;;3.00;2.03;;;8.30;99.90;;;;;;4893331;29;20213;-70
2021/03/27 14:16:57;;;;;;;4.38;1.38;;;8.40;99.90;;;;;;4884166;29;20286;-70
2021/03/27 14:19:36;;;;;;;4.82;2.25;;;8.40;99.90;;;;;;4888372;29;20664;-72
2021/03/27 14:22:19;;;;;;;2.13;1.92;;;8.40;99.90;;;;;;4877828;29;20296;-70
2021/03/27 14:25:05;;;;;;;1.45;1.35;;;8.40;99.90;;;;;;4887776;29;20238;-71
2021/03/27 14:27:37;;;;;;;3.13;1.80;;;8.40;99.90;;;;;;4914803;29;20205;-70
2021/03/27 14:30:17;;;;;;;1.20;1.10;;;8.30;99.90;;;;;;4897173;29;20215;-70
2021/03/27 14:32:56;;;;;;;2.47;1.25;;;8.40;99.90;;;;;;4889787;29;20275;-71
2021/03/27 14:35:51;;;;;;;2.05;1.88;;;8.40;99.90;;;;;;4895097;29;20579;-70
2021/03/27 14:38:30;;;;;;;2.20;1.60;;;8.50;99.90;;;;;;4887841;29;20559;-70
2021/03/27 14:41:04;;;;;;;2.95;1.75;;;8.50;99.90;;;;;;4893674;29;20226;-71
2021/03/27 14:43:46;;;;;;;4.15;2.15;;;8.60;99.90;;;;;;4887655;29;20283;-71
2021/03/27 14:46:54;;;;;;;3.25;2.03;;;8.70;99.90;;;;;;4888074;29;20216;-70
2021/03/27 14:49:44;;;;;;;7.60;3.13;;;8.70;99.90;;;;;;4884599;29;20652;-70
2021/03/27 14:52:19;;;;;;;3.67;1.60;;;8.70;99.90;;;;;;4890818;29;20302;-70
2021/03/27 14:54:57;;;;;;;4.07;2.05;;;8.70;99.90;;;;;;4881855;29;20211;-70
2021/03/27 14:57:28;;;;;;;2.92;1.80;;;8.70;99.90;;;;;;4904029;29;20210;-71
2021/03/27 14:59:56;;;;;;;2.05;1.95;;;8.60;99.90;;;;;;4910012;29;20233;-70
2021/03/27 15:02:30;;;;;;;3.08;2.22;;;8.60;99.90;;;;;;4910669;29;20256;-71
2021/03/27 15:05:03;;;;;;;6.30;3.47;;;8.50;99.90;;;;;;4891362;29;20306;-70
2021/03/27 15:07:35;;;;;;;3.60;1.42;;;8.30;99.90;;;;;;4893390;29;20215;-71
2021/03/27 15:10:34;;;;;;;2.40;0.90;;;8.00;99.90;;;;;;4900927;29;20203;-70
2021/03/27 15:13:10;;;;;;;2.70;1.33;;;7.60;99.90;;;;;;4896041;29;20274;-70
2021/03/27 15:15:45;;;;;;;2.15;1.40;;;7.30;99.90;;;;;;4902243;29;20214;-70
2021/03/27 15:18:20;;;;;;;2.28;1.35;;;7.10;99.90;;;;;;4896248;29;20214;-70
2021/03/27 15:20:54;;;;;;;3.03;1.30;;;6.90;99.90;;;;;;4909473;29;20373;-70
2021/03/27 15:23:27;;;;;;;3.13;1.30;;;6.90;99.90;;;;;;4914772;29;20209;-70
2021/03/27 15:29:08;;;;;;;3.13;1.60;;;6.90;99.90;;;;;;4910455;29;20218;-70
2021/03/27 15:31:40;;;;;;;1.50;1.42;;;7.00;99.90;;;;;;4895771;29;20234;-70
2021/03/27 15:34:11;;;;;;;2.47;1.35;;;7.10;99.90;;;;;;4905498;29;20195;-70
2021/03/27 15:36:53;;;;;;;3.00;1.70;;;7.20;99.90;;;;;;4906423;29;20200;-70
2021/03/27 15:39:37;;;;;;;1.50;1.40;;;7.30;99.90;;;;;;4908616;29;20203;-70
2021/03/27 15:42:09;;;;;;;4.95;2.42;;;7.30;99.90;;;;;;4909758;29;20252;-71
2021/03/27 15:44:41;;;;;;;5.18;2.25;;;7.40;99.90;;;;;;4898745;29;20215;-70
2021/03/27 15:47:14;;;;;;;2.00;1.90;;;7.40;99.90;;;;;;4903041;29;20211;-71
2021/03/27 15:49:46;;;;;;;3.47;2.00;;;7.40;99.90;;;;;;4904636;29;20646;-70
2021/03/27 15:52:27;;;;;;;8.68;2.25;;;7.50;99.90;;;;;;4907755;29;20664;-70
2021/03/27 15:55:03;;;;;;;3.08;2.03;;;7.40;99.90;;;;;;4895457;29;20211;-70
2021/03/27 15:57:44;;;;;;;2.33;1.52;;;7.40;99.90;;;;;;4894263;29;20218;-70
2021/03/27 16:00:25;;;;;;;1.73;1.63;;;7.30;99.90;;;;;;4883486;29;20207;-70
2021/03/27 16:03:04;;;;;;;2.88;1.90;;;7.30;99.90;;;;;;4889839;29;20199;-71
2021/03/27 16:05:37;;;;;;;3.47;3.15;;;7.30;99.90;;;;;;4883681;29;20896;-72
2021/03/27 16:08:10;;;;;;;1.50;1.50;;;7.20;99.90;;;;;;4893820;29;20292;-71
2021/03/27 16:10:40;;;;;;;2.55;2.08;;;7.30;99.90;;;;;;4890342;29;20227;-71
2021/03/27 16:13:36;;;;;;;2.83;1.60;;;7.30;99.90;;;;;;4887727;29;20669;-71
2021/03/27 16:16:27;;;;;;;1.40;1.30;;;7.30;99.90;;;;;;4880772;29;20663;-72
2021/03/27 16:19:25;;;;;;;2.17;1.50;;;7.30;99.90;;;;;;4881340;29;20235;-69
2021/03/27 16:22:05;;;;;;;3.08;1.60;;;7.30;99.90;;;;;;4879420;29;20230;-71
2021/03/27 16:24:53;;;;;;;5.60;2.60;;;7.30;99.90;;;;;;4884630;29;20208;-71
2021/03/27 16:27:32;;;;;;;4.78;2.63;;;7.30;99.90;;;;;;4900967;29;20224;-72
2021/03/27 16:30:17;;;;;;;1.77;1.70;;;7.20;99.90;;;;;;4890638;29;20310;-72
2021/03/27 16:33:09;;;;;;;1.75;1.65;;;7.20;99.90;;;;;;4881169;29;20220;-71
2021/03/27 16:35:40;;;;;;;3.17;2.95;;;7.20;99.90;;;;;;4891076;29;20212;-72
2021/03/27 16:38:46;;;;;;;2.92;1.67;;;7.10;99.90;;;;;;4883223;29;20208;-71
2021/03/27 16:41:17;;;;;;;2.40;2.30;;;7.10;99.90;;;;;;4868050;29;20227;-71
2021/03/27 16:43:49;;;;;;;2.25;2.15;;;7.10;99.90;;;;;;4891734;29;20217;-70
2021/03/27 16:46:21;;;;;;;2.03;1.90;;;7.00;99.90;;;;;;4891726;29;20655;-71
2021/03/27 16:49:00;;;;;;;3.15;2.33;;;7.00;99.90;;;;;;4880655;29;20204;-71
2021/03/27 16:51:36;;;;;;;3.83;3.05;;;6.90;99.90;;;;;;4879327;29;20582;-71
2021/03/27 16:54:41;;;;;;;3.08;1.60;;;6.80;99.90;;;;;;4885818;29;20207;-71
2021/03/27 16:57:39;;;;;;;1.90;1.27;;;6.70;99.90;;;;;;4886454;29;20207;-71
2021/03/27 17:00:15;;;;;;;1.55;1.42;;;6.60;99.90;;;;;;4878101;29;20211;-71
2021/03/27 17:02:47;;;;;;;1.70;1.60;;;6.60;99.90;;;;;;4914761;29;20597;-71
2021/03/27 17:05:32;;;;;;;2.00;1.70;;;6.40;99.90;;;;;;4916817;29;20206;-71
2021/03/27 17:08:05;;;;;;;2.35;1.60;;;6.40;99.90;;;;;;4900246;29;20294;-71
2021/03/27 17:10:37;;;;;;;6.00;5.47;;;6.30;99.90;;;;;;4899624;29;20671;-70
2021/03/27 17:13:17;;;;;;;4.10;1.95;;;6.30;99.90;;;;;;4888439;29;20211;-69
2021/03/27 17:16:02;;;;;;;2.80;2.60;;;6.20;99.90;;;;;;4885981;29;20196;-70
2021/03/27 17:18:58;;;;;;;3.72;2.47;;;6.20;99.90;;;;;;4887156;29;20234;-69
2021/03/27 17:21:33;;;;;;;1.63;1.63;;;6.20;99.90;;;;;;4890467;29;20614;-69
2021/03/27 17:24:05;;;;;;;2.55;2.40;;;6.10;99.90;;;;;;4888900;29;20199;-69
2021/03/27 17:26:42;;;;;;;2.40;2.15;;;6.10;99.90;;;;;;4896943;29;20202;-70
2021/03/27 17:29:26;;;;;;;5.72;5.13;;;6.00;99.90;;;;;;4891272;29;20207;-70
2021/03/27 17:32:08;;;;;;;3.10;2.90;;;5.90;99.90;;;;;;4883988;29;20736;-70
2021/03/27 17:34:41;;;;;;;7.55;5.35;;;5.90;99.90;;;;;;4899272;29;20210;-70
2021/03/27 17:37:22;;;;;;;6.35;5.65;;;5.90;99.90;;;;;;4909062;29;20826;-70
2021/03/27 17:40:02;;;;;;;5.22;4.72;;;5.90;99.90;;;;;;4887559;29;20207;-70
2021/03/27 17:42:40;;;;;;;3.05;2.85;;;5.80;99.90;;;;;;4895966;29;20291;-69
2021/03/27 17:45:34;;;;;;;2.50;2.40;;;5.80;99.90;;;;;;4898056;29;20211;-70
2021/03/27 17:48:06;;;;;;;6.30;5.07;;;5.80;99.90;;;;;;4881940;29;20332;-71
2021/03/27 17:50:44;;;;;;;8.85;3.78;;;5.70;99.90;;;;;;4886679;29;20580;-70
2021/03/27 17:53:17;;;;;;;2.70;2.50;;;5.80;99.90;;;;;;4892132;29;20216;-71
2021/03/27 17:55:50;;;;;;;5.88;4.40;;;5.80;99.90;;;;;;4888537;29;20306;-71
2021/03/27 17:58:22;;;;;;;4.55;3.70;;;5.80;99.90;;;;;;4879132;29;20526;-71
2021/03/27 18:00:51;;;;;;;5.60;3.60;;;5.80;99.90;;;;;;4878937;29;20239;-70
2021/03/27 18:03:25;;;;;;;3.97;3.35;;;5.80;99.90;;;;;;4881593;29;20481;-72
2021/03/27 18:05:59;;;;;;;3.83;3.53;;;5.80;99.90;;;;;;4896487;29;20542;-73
2021/03/27 18:08:29;;;;;;;5.35;4.85;;;5.90;99.90;;;;;;4888869;29;20207;-72
2021/03/27 18:11:05;;;;;;;3.97;3.78;;;5.90;99.90;;;;;;4888234;29;20227;-71
2021/03/27 18:13:44;;;;;;;3.55;3.10;;;5.90;99.90;;;;;;4896268;29;20202;-72
2021/03/27 18:16:16;;;;;;;4.95;2.95;;;5.90;99.90;;;;;;4892229;29;20267;-71
2021/03/27 18:18:50;;;;;;;2.33;2.22;;;5.90;99.90;;;;;;4894464;29;20195;-72
2021/03/27 18:21:40;;;;;;;3.10;2.90;;;5.90;99.90;;;;;;4896857;29;20573;-70
2021/03/27 18:24:36;;;;;;;2.50;2.40;;;5.90;99.90;;;;;;4895568;29;20290;-69
2021/03/27 18:27:13;;;;;;;1.85;1.75;;;6.00;99.90;;;;;;4906606;29;20624;-69
2021/03/27 18:29:45;;;;;;;2.95;1.80;;;6.00;99.90;;;;;;4893323;29;20211;-69
2021/03/27 18:32:18;;;;;;;2.03;1.90;;;6.00;99.90;;;;;;4903972;29;20249;-69
2021/03/27 18:34:50;;;;;;;1.77;1.75;;;6.00;99.90;;;;;;4894693;29;20274;-70
2021/03/27 18:37:24;;;;;;;2.50;2.30;;;5.90;99.90;;;;;;4898246;29;20302;-72
2021/03/27 18:40:01;;;;;;;2.80;2.60;;;5.90;99.90;;;;;;4903023;29;20600;-70
2021/03/27 18:42:41;;;;;;;2.05;1.98;;;5.90;99.90;;;;;;4896591;29;20235;-70
2021/03/27 18:45:10;;;;;;;2.72;2.47;;;5.80;99.90;;;;;;4907332;29;20229;-71
2021/03/27 18:47:40;;;;;;;3.83;3.63;;;5.70;99.90;;;;;;4884961;29;20208;-71
2021/03/27 18:50:22;;;;;;;4.78;3.63;;;5.70;99.90;;;;;;4891109;29;20215;-70
2021/03/27 18:52:52;;;;;;;2.50;2.40;;;5.60;99.90;;;;;;4891885;29;20737;-71
2021/03/27 18:55:23;;;;;;;2.97;2.50;;;5.60;99.90;;;;;;4899315;29;20207;-70
2021/03/27 18:57:56;;;;;;;2.67;2.58;;;5.60;99.90;;;;;;4893306;29;20206;-70
2021/03/27 19:00:27;;;;;;;2.65;2.45;;;5.50;99.90;;;;;;4892059;29;20310;-70
2021/03/27 19:02:58;;;;;;;3.45;3.15;;;5.50;99.90;;;;;;4888284;29;20211;-70
2021/03/27 19:05:32;;;;;;;2.97;2.55;;;5.50;99.90;;;;;;4880513;29;20203;-70
2021/03/27 19:08:20;;;;;;;3.88;3.58;;;5.40;99.90;;;;;;4884534;29;20327;-70
2021/03/27 19:10:49;;;;;;;3.10;2.90;;;5.30;99.90;;;;;;4875310;29;20271;-69
2021/03/27 19:13:23;;;;;;;6.93;3.70;;;5.30;99.90;;;;;;4880635;29;20232;-69
2021/03/27 19:16:00;;;;;;;4.55;3.78;;;5.30;99.90;;;;;;4880685;29;20214;-69
2021/03/27 19:18:28;;;;;;;7.05;4.03;;;5.20;99.90;;;;;;4893065;29;20640;-71
2021/03/27 19:21:06;;;;;;;4.57;3.88;;;5.20;99.90;;;;;;4896609;29;20235;-71
2021/03/27 19:23:37;;;;;;;4.53;3.20;;;5.20;99.90;;;;;;4889773;29;20218;-71
2021/03/27 19:26:11;;;;;;;5.85;3.20;;;5.20;99.90;;;;;;4879102;29;20224;-71
2021/03/27 19:28:42;;;;;;;9.07;3.20;;;5.10;99.90;;;;;;4880358;29;20211;-71